createdAt,value
2019-01-24T00:00:33.675Z,99.90
2019-01-24T00:03:05.885Z,99.90
2019-01-24T00:05:37.856Z,99.90
2019-01-24T00:08:09.574Z,99.90
2019-01-24T00:10:41.282Z,99.90
2019-01-24T00:13:13.266Z,99.90
2019-01-24T00:15:45.639Z,99.90
2019-01-24T00:18:17.861Z,99.90
2019-01-24T00:20:49.889Z,99.90
2019-01-24T00:23:21.876Z,99.90
2019-01-24T00:25:54.360Z,99.90
2019-01-24T00:28:26.351Z,99.90
2019-01-24T00:30:58.862Z,99.90
2019-01-24T00:33:33.358Z,99.90
2019-01-24T00:36:08.286Z,99.90
2019-01-24T00:38:40.133Z,99.90
2019-01-24T00:41:11.791Z,99.90
2019-01-24T00:43:43.691Z,99.90
2019-01-24T00:46:15.408Z,99.90
2019-01-24T00:48:47.124Z,99.90
2019-01-24T00:51:19.145Z,99.90
2019-01-24T00:53:51.007Z,99.90
2019-01-24T00:56:24.400Z,99.90
2019-01-24T00:58:56.963Z,99.90
2019-01-24T01:01:28.843Z,99.90
2019-01-24T01:04:00.588Z,99.90
2019-01-24T01:06:32.417Z,99.90
2019-01-24T01:09:07.495Z,99.90
2019-01-24T01:11:39.235Z,99.90
2019-01-24T01:14:11.233Z,99.90
2019-01-24T01:16:43.336Z,99.90
2019-01-24T01:19:14.988Z,99.90
2019-01-24T01:21:46.862Z,99.90
2019-01-24T01:24:18.748Z,99.90
2019-01-24T01:26:51.091Z,99.90
2019-01-24T01:29:22.723Z,99.90
2019-01-24T01:31:54.598Z,99.90
2019-01-24T01:34:26.612Z,99.90
2019-01-24T01:37:00.020Z,99.90
2019-01-24T01:39:32.146Z,99.90
2019-01-24T01:42:04.194Z,99.90
2019-01-24T01:44:35.905Z,99.90
2019-01-24T01:47:09.394Z,99.90
2019-01-24T01:49:41.663Z,99.90
2019-01-24T01:52:13.491Z,99.90
2019-01-24T01:54:45.256Z,99.90
2019-01-24T01:57:17.091Z,99.90
2019-01-24T01:59:48.761Z,99.90
2019-01-24T02:02:20.665Z,99.90
2019-01-24T02:04:52.918Z,99.90
2019-01-24T02:07:25.065Z,99.90
2019-01-24T02:09:56.827Z,99.90
2019-01-24T02:12:28.630Z,99.90
2019-01-24T02:15:00.841Z,99.90
2019-01-24T02:17:32.737Z,99.90
2019-01-24T02:20:06.304Z,99.90
2019-01-24T02:22:38.117Z,99.90
2019-01-24T02:25:13.108Z,99.90
2019-01-24T02:27:45.627Z,99.90
2019-01-24T02:30:25.991Z,99.90
2019-01-24T02:32:57.958Z,99.90
2019-01-24T02:35:29.987Z,99.90
2019-01-24T02:38:01.982Z,99.90
2019-01-24T02:40:33.729Z,99.90
2019-01-24T02:43:05.622Z,99.90
2019-01-24T02:45:37.972Z,99.90
2019-01-24T02:48:09.701Z,99.90
2019-01-24T02:50:41.426Z,99.90
2019-01-24T02:53:14.061Z,99.90
2019-01-24T02:55:45.906Z,99.90
2019-01-24T02:58:18.109Z,99.90
2019-01-24T03:00:49.972Z,99.90
2019-01-24T03:03:22.272Z,99.90
2019-01-24T03:05:54.785Z,99.90
2019-01-24T03:08:26.772Z,99.90
2019-01-24T03:10:58.812Z,99.90
2019-01-24T03:13:30.507Z,99.90
2019-01-24T03:16:02.186Z,99.90
2019-01-24T03:18:33.928Z,99.90
2019-01-24T03:21:05.884Z,99.90
2019-01-24T03:23:38.157Z,99.90
2019-01-24T03:26:09.817Z,99.90
2019-01-24T03:28:42.159Z,99.90
2019-01-24T03:31:14.277Z,99.90
2019-01-24T03:33:46.078Z,99.90
2019-01-24T03:36:17.766Z,99.90
2019-01-24T03:38:50.615Z,99.90
2019-01-24T03:41:22.500Z,99.90
2019-01-24T03:43:54.232Z,99.90
2019-01-24T03:46:28.697Z,99.90
2019-01-24T03:49:00.400Z,99.90
2019-01-24T03:51:32.781Z,99.90
2019-01-24T03:54:04.619Z,99.90
2019-01-24T03:56:36.442Z,99.90
2019-01-24T03:59:08.885Z,99.90
2019-01-24T04:01:40.813Z,99.90
2019-01-24T04:04:13.773Z,99.90
2019-01-24T04:06:45.609Z,99.90
2019-01-24T04:09:17.396Z,99.90
2019-01-24T04:11:49.044Z,99.90
2019-01-24T04:14:21.283Z,99.90
2019-01-24T04:16:53.804Z,99.90
2019-01-24T04:19:25.570Z,99.90
2019-01-24T04:21:57.264Z,99.90
2019-01-24T04:24:29.701Z,99.90
2019-01-24T04:27:01.864Z,99.90
2019-01-24T04:29:33.894Z,99.90
2019-01-24T04:32:07.272Z,99.90
2019-01-24T04:34:40.624Z,99.90
2019-01-24T04:37:12.703Z,99.90
2019-01-24T04:39:44.620Z,99.90
2019-01-24T04:42:16.682Z,99.90
2019-01-24T04:44:48.521Z,99.90
2019-01-24T04:47:20.903Z,99.90
2019-01-24T04:49:52.716Z,99.90
2019-01-24T04:52:24.424Z,99.90
2019-01-24T04:54:56.238Z,99.90
2019-01-24T04:57:27.903Z,99.90
2019-01-24T04:59:59.619Z,99.90
2019-01-24T05:02:31.830Z,99.90
2019-01-24T05:05:03.866Z,99.90
2019-01-24T05:07:35.680Z,99.90
2019-01-24T05:10:09.530Z,99.90
2019-01-24T05:12:41.365Z,99.90
2019-01-24T05:15:13.783Z,99.90
2019-01-24T05:17:45.983Z,99.90
2019-01-24T05:20:18.267Z,99.90
2019-01-24T05:22:51.201Z,99.90
2019-01-24T05:25:23.134Z,99.90
2019-01-24T05:27:55.652Z,99.90
2019-01-24T05:30:28.542Z,99.90
2019-01-24T05:33:00.672Z,99.90
2019-01-24T05:35:34.851Z,99.90
2019-01-24T05:38:07.344Z,99.90
2019-01-24T05:40:39.431Z,99.90
2019-01-24T05:43:11.886Z,99.90
2019-01-24T05:45:44.433Z,99.90
2019-01-24T05:48:16.553Z,99.90
2019-01-24T05:50:48.761Z,99.90
2019-01-24T05:53:20.740Z,99.90
2019-01-24T05:55:52.742Z,99.90
2019-01-24T05:58:25.316Z,99.90
2019-01-24T06:00:58.097Z,99.90
2019-01-24T06:03:30.644Z,99.90
2019-01-24T06:06:02.858Z,99.90
2019-01-24T06:08:35.651Z,99.90
2019-01-24T06:11:08.020Z,99.90
2019-01-24T06:13:40.031Z,99.90
2019-01-24T06:16:12.195Z,99.90
2019-01-24T06:18:44.120Z,99.90
2019-01-24T06:21:16.422Z,99.90
2019-01-24T06:23:48.395Z,99.90
2019-01-24T06:26:22.097Z,99.90
2019-01-24T06:28:54.417Z,99.90
2019-01-24T06:31:26.440Z,99.90
2019-01-24T06:33:58.361Z,99.90
2019-01-24T06:36:30.835Z,99.90
2019-01-24T06:39:02.933Z,99.90
2019-01-24T06:41:35.008Z,99.90
2019-01-24T06:44:07.204Z,99.90
2019-01-24T06:46:39.443Z,99.90
2019-01-24T06:49:11.757Z,99.90
2019-01-24T06:51:43.986Z,99.90
2019-01-24T06:54:16.086Z,99.90
2019-01-24T06:56:48.174Z,99.90
2019-01-24T06:59:20.268Z,99.90
2019-01-24T07:01:52.251Z,99.90
2019-01-24T07:04:24.210Z,99.90
2019-01-24T07:06:56.582Z,99.90
2019-01-24T07:09:28.986Z,99.90
2019-01-24T07:12:01.058Z,99.90
2019-01-24T07:14:33.383Z,99.90
2019-01-24T07:17:05.808Z,99.90
2019-01-24T07:19:38.089Z,99.90
2019-01-24T07:22:10.552Z,99.90
2019-01-24T07:24:42.882Z,99.90
2019-01-24T07:27:15.549Z,99.90
2019-01-24T07:29:47.705Z,99.90
2019-01-24T07:32:19.987Z,99.90
2019-01-24T07:34:52.977Z,99.90
2019-01-24T07:37:26.504Z,99.90
2019-01-24T07:39:58.717Z,99.90
2019-01-24T07:42:30.935Z,99.90
2019-01-24T07:45:03.076Z,99.90
2019-01-24T07:47:35.419Z,99.90
2019-01-24T07:50:10.358Z,99.90
2019-01-24T07:52:42.524Z,99.90
2019-01-24T07:55:14.751Z,99.90
2019-01-24T07:57:47.102Z,99.90
2019-01-24T08:00:24.417Z,99.90
2019-01-24T08:02:56.797Z,99.90
2019-01-24T08:05:30.414Z,99.90
2019-01-24T08:08:02.499Z,99.90
2019-01-24T08:10:34.995Z,99.90
2019-01-24T08:13:07.177Z,99.90
2019-01-24T08:15:39.252Z,99.90
2019-01-24T08:18:11.336Z,99.90
2019-01-24T08:20:44.082Z,99.90
2019-01-24T08:23:16.208Z,99.90
2019-01-24T08:25:48.488Z,99.90
2019-01-24T08:28:20.464Z,99.90
2019-01-24T08:30:52.634Z,99.90
2019-01-24T08:33:25.054Z,99.90
2019-01-24T08:35:57.203Z,99.90
2019-01-24T08:38:29.277Z,99.90
2019-01-24T08:41:01.380Z,99.90
2019-01-24T08:43:33.465Z,99.90
2019-01-24T08:46:05.507Z,99.90
2019-01-24T08:48:37.795Z,99.90
2019-01-24T08:51:09.885Z,99.90
2019-01-24T08:53:41.983Z,99.90
2019-01-24T08:56:15.268Z,99.90
2019-01-24T08:58:47.142Z,99.90
2019-01-24T09:01:19.672Z,99.90
2019-01-24T09:03:51.596Z,99.90
2019-01-24T09:06:23.927Z,99.90
2019-01-24T09:08:56.341Z,99.90
2019-01-24T09:11:28.760Z,99.90
2019-01-24T09:14:00.857Z,99.90
2019-01-24T09:16:33.779Z,99.90
2019-01-24T09:19:06.204Z,99.90
2019-01-24T09:21:38.729Z,99.90
2019-01-24T09:24:10.876Z,99.90
2019-01-24T09:26:43.415Z,99.90
2019-01-24T09:29:15.862Z,99.90
2019-01-24T09:31:47.900Z,99.90
2019-01-24T09:34:19.933Z,99.90
2019-01-24T09:36:52.368Z,99.90
2019-01-24T09:39:24.774Z,99.90
2019-01-24T09:41:57.056Z,99.90
2019-01-24T09:44:29.580Z,99.90
2019-01-24T09:47:02.200Z,99.90
2019-01-24T09:49:34.224Z,99.90
2019-01-24T09:52:06.633Z,99.90
2019-01-24T09:54:38.899Z,99.90
2019-01-24T09:57:11.089Z,99.90
2019-01-24T09:59:43.047Z,99.90
2019-01-24T10:02:15.225Z,99.90
2019-01-24T10:04:47.540Z,99.90
2019-01-24T10:07:19.950Z,99.90
2019-01-24T10:09:51.924Z,99.90
2019-01-24T10:12:24.448Z,99.90
2019-01-24T10:14:56.781Z,99.90
2019-01-24T10:17:29.141Z,99.90
2019-01-24T10:20:01.572Z,99.90
2019-01-24T10:22:33.982Z,99.90
2019-01-24T10:25:08.445Z,99.90
2019-01-24T10:27:40.583Z,99.90
2019-01-24T10:30:18.098Z,99.90
2019-01-24T10:32:50.288Z,99.90
2019-01-24T10:35:23.012Z,99.90
2019-01-24T10:37:55.040Z,99.90
2019-01-24T10:40:29.255Z,99.90
2019-01-24T10:43:03.070Z,99.90
2019-01-24T10:45:35.241Z,99.90
2019-01-24T10:48:07.485Z,99.90
2019-01-24T10:50:39.935Z,99.90
2019-01-24T10:53:11.888Z,99.90
2019-01-24T10:55:43.961Z,99.90
2019-01-24T10:58:16.070Z,99.90
2019-01-24T11:00:48.377Z,99.90
2019-01-24T11:03:20.432Z,99.90
2019-01-24T11:05:52.920Z,99.90
2019-01-24T11:08:25.260Z,99.90
2019-01-24T11:10:57.390Z,99.90
2019-01-24T11:13:29.407Z,99.90
2019-01-24T11:16:02.043Z,99.90
2019-01-24T11:18:34.816Z,99.90
2019-01-24T11:21:06.941Z,99.90
2019-01-24T11:23:39.499Z,99.90
2019-01-24T11:26:11.893Z,99.90
2019-01-24T11:28:43.881Z,99.90
2019-01-24T11:31:16.142Z,99.90
2019-01-24T11:33:48.241Z,99.90
2019-01-24T11:36:20.287Z,99.90
2019-01-24T11:38:52.409Z,99.90
2019-01-24T11:41:24.601Z,99.90
2019-01-24T11:43:56.882Z,99.90
2019-01-24T11:46:29.466Z,99.90
2019-01-24T11:49:01.327Z,99.90
2019-01-24T11:51:33.759Z,99.90
2019-01-24T11:54:06.101Z,99.90
2019-01-24T11:56:39.407Z,99.90
2019-01-24T11:59:11.989Z,99.90
2019-01-24T12:01:44.031Z,99.90
2019-01-24T12:04:16.425Z,99.90
2019-01-24T12:06:48.868Z,99.90
2019-01-24T12:09:22.186Z,99.90
2019-01-24T12:11:54.903Z,99.90
2019-01-24T12:14:26.830Z,99.90
2019-01-24T12:16:58.738Z,99.90
2019-01-24T12:19:31.180Z,99.90
2019-01-24T12:22:03.167Z,99.90
2019-01-24T12:24:34.830Z,99.90
2019-01-24T12:27:07.098Z,99.90
2019-01-24T12:29:39.706Z,99.90
2019-01-24T12:32:11.452Z,99.90
2019-01-24T12:34:43.141Z,99.90
2019-01-24T12:37:15.049Z,99.90
2019-01-24T12:39:47.128Z,99.90
2019-01-24T12:42:18.896Z,99.90
2019-01-24T12:44:50.578Z,99.90
2019-01-24T12:47:28.003Z,99.90
2019-01-24T12:49:59.988Z,99.90
2019-01-24T12:52:32.021Z,99.90
2019-01-24T12:55:03.962Z,99.90
2019-01-24T12:57:35.654Z,99.90
2019-01-24T13:00:12.991Z,99.90
2019-01-24T13:02:45.137Z,99.90
2019-01-24T13:05:17.100Z,99.90
2019-01-24T13:07:52.610Z,99.90
2019-01-24T13:10:26.611Z,99.90
2019-01-24T13:12:58.845Z,99.90
2019-01-24T13:15:32.475Z,99.90
2019-01-24T13:18:05.717Z,99.90
2019-01-24T13:20:37.439Z,99.90
2019-01-24T13:23:09.725Z,99.90
2019-01-24T13:25:41.731Z,99.90
2019-01-24T13:28:14.151Z,99.90
2019-01-24T13:30:46.420Z,99.90
2019-01-24T13:33:18.739Z,99.90
2019-01-24T13:35:57.061Z,99.90
2019-01-24T13:38:30.424Z,99.90
2019-01-24T13:41:02.304Z,99.90
2019-01-24T13:43:34.169Z,99.90
2019-01-24T13:46:06.057Z,99.90
2019-01-24T13:48:38.323Z,99.90
2019-01-24T13:51:10.291Z,99.90
2019-01-24T13:53:41.956Z,99.90
2019-01-24T13:56:13.781Z,99.90
2019-01-24T13:58:46.243Z,99.90
2019-01-24T14:01:18.590Z,99.90
2019-01-24T14:03:51.568Z,99.90
2019-01-24T14:06:23.674Z,99.90
2019-01-24T14:08:55.506Z,99.90
2019-01-24T14:11:27.260Z,99.90
2019-01-24T14:13:59.100Z,99.90
2019-01-24T14:16:31.111Z,99.90
2019-01-24T14:19:02.940Z,99.90
2019-01-24T14:21:35.831Z,99.90
2019-01-24T14:24:08.940Z,99.90
2019-01-24T14:26:41.038Z,99.90
2019-01-24T14:29:13.342Z,99.90
2019-01-24T14:31:45.486Z,99.90
2019-01-24T14:34:17.670Z,99.90
2019-01-24T14:36:49.908Z,99.90
2019-01-24T14:39:21.500Z,99.90
2019-01-24T14:41:53.619Z,99.90
2019-01-24T14:45:07.871Z,99.90
2019-01-24T14:47:40.713Z,99.90
2019-01-24T14:50:16.836Z,99.90
2019-01-24T14:52:49.142Z,99.90
2019-01-24T14:55:21.995Z,99.90
2019-01-24T14:57:54.983Z,99.90
2019-01-24T15:00:31.867Z,99.90
2019-01-24T15:03:04.781Z,99.90
2019-01-24T15:05:37.255Z,99.90
2019-01-24T15:08:10.214Z,99.90
2019-01-24T15:10:42.350Z,99.90
2019-01-24T15:13:14.824Z,99.90
2019-01-24T15:15:47.347Z,99.90
2019-01-24T15:18:19.905Z,99.50
2019-01-24T15:20:52.060Z,99.90
2019-01-24T15:23:24.296Z,99.90
2019-01-24T15:25:58.757Z,99.90
2019-01-24T15:28:30.676Z,99.90
2019-01-24T15:31:03.274Z,99.90
2019-01-24T15:33:36.567Z,99.90
2019-01-24T15:36:09.016Z,99.90
2019-01-24T15:38:41.130Z,98.90
2019-01-24T15:41:13.691Z,99.30
2019-01-24T15:43:58.343Z,98.60
2019-01-24T15:46:53.196Z,98.90
2019-01-24T15:49:44.807Z,98.70
2019-01-24T15:52:33.997Z,98.60
2019-01-24T15:55:07.364Z,98.90
2019-01-24T15:57:39.505Z,97.80
2019-01-24T16:00:22.589Z,97.30
2019-01-24T16:02:56.557Z,96.90
2019-01-24T16:05:29.183Z,96.90
2019-01-24T16:08:01.830Z,94.00
2019-01-24T16:10:34.717Z,93.30
2019-01-24T16:13:08.036Z,93.90
2019-01-24T16:15:41.843Z,94.50
2019-01-24T16:18:15.690Z,93.10
2019-01-24T16:20:50.520Z,93.30
2019-01-24T16:23:23.649Z,92.60
2019-01-24T16:25:57.702Z,91.50
2019-01-24T16:28:31.534Z,91.30
2019-01-24T16:31:05.949Z,92.40
2019-01-24T16:33:52.776Z,92.60
2019-01-24T16:36:32.977Z,91.90
2019-01-24T16:39:07.165Z,92.00
2019-01-24T16:41:39.194Z,91.90
2019-01-24T16:47:55.325Z,91.20
2019-01-24T16:50:28.926Z,90.90
2019-01-24T16:53:01.229Z,90.40
2019-01-24T16:55:33.923Z,88.10
2019-01-24T16:58:05.854Z,90.00
2019-01-24T17:00:51.649Z,87.80
2019-01-24T17:03:25.009Z,85.10
2019-01-24T17:05:57.265Z,85.40
2019-01-24T17:08:29.818Z,84.60
2019-01-24T17:11:02.512Z,84.80
2019-01-24T17:13:36.929Z,86.40
2019-01-24T17:16:10.765Z,87.50
2019-01-24T17:18:43.117Z,84.70
2019-01-24T17:21:14.756Z,82.60
2019-01-24T17:23:46.836Z,83.50
2019-01-24T17:26:21.087Z,84.50
2019-01-24T17:28:53.195Z,85.30
2019-01-24T17:31:28.203Z,84.20
2019-01-24T17:34:00.581Z,83.20
2019-01-24T17:36:32.547Z,80.60
2019-01-24T17:39:06.650Z,81.50
2019-01-24T17:41:39.234Z,82.10
2019-01-24T17:44:13.096Z,79.30
2019-01-24T17:46:45.027Z,78.80
2019-01-24T17:49:16.763Z,79.60
2019-01-24T17:51:48.669Z,80.40
2019-01-24T17:54:20.661Z,79.20
2019-01-24T17:56:52.847Z,78.00
2019-01-24T17:59:28.230Z,77.30
2019-01-24T18:02:00.889Z,76.50
2019-01-24T18:04:32.975Z,79.90
2019-01-24T18:07:05.060Z,79.50
2019-01-24T18:09:41.182Z,78.30
2019-01-24T18:12:13.379Z,76.20
2019-01-24T18:14:47.549Z,74.60
2019-01-24T18:17:20.254Z,72.80
2019-01-24T18:19:52.657Z,75.50
2019-01-24T18:22:24.513Z,76.90
2019-01-24T18:24:57.190Z,76.20
2019-01-24T18:27:35.647Z,75.40
2019-01-24T18:30:16.245Z,73.50
2019-01-24T18:32:49.811Z,73.80
2019-01-24T18:35:52.577Z,74.00
2019-01-24T18:38:25.237Z,74.40
2019-01-24T18:40:59.518Z,74.00
2019-01-24T18:43:31.694Z,72.90
2019-01-24T18:46:04.201Z,71.50
2019-01-24T18:48:36.148Z,71.40
2019-01-24T18:51:08.320Z,70.70
2019-01-24T18:53:40.730Z,69.50
2019-01-24T18:56:13.564Z,69.20
2019-01-24T18:58:46.910Z,69.90
2019-01-24T19:01:19.117Z,71.20
2019-01-24T19:03:53.779Z,70.50
2019-01-24T19:06:28.150Z,70.70
2019-01-24T19:09:01.573Z,69.50
2019-01-24T19:11:41.613Z,70.50
2019-01-24T19:14:16.644Z,69.60
2019-01-24T19:16:52.135Z,68.20
2019-01-24T19:19:25.913Z,68.50
2019-01-24T19:21:58.514Z,70.20
2019-01-24T19:24:32.467Z,68.50
2019-01-24T19:27:06.611Z,69.80
2019-01-24T19:29:42.926Z,68.90
2019-01-24T19:35:42.400Z,66.10
2019-01-24T19:38:15.488Z,67.50
2019-01-24T19:40:47.330Z,65.80
2019-01-24T19:43:20.009Z,66.20
2019-01-24T19:45:52.022Z,67.60
2019-01-24T19:48:24.077Z,67.90
2019-01-24T19:50:56.279Z,68.50
2019-01-24T19:53:29.433Z,66.80
2019-01-24T19:56:03.722Z,65.70
2019-01-24T19:58:36.898Z,66.50
2019-01-24T20:04:49.439Z,64.70
2019-01-24T20:07:21.996Z,64.00
2019-01-24T20:09:54.729Z,62.30
2019-01-24T20:12:31.745Z,63.10
2019-01-24T20:15:05.066Z,63.50
2019-01-24T20:17:39.368Z,64.50
2019-01-24T20:20:14.005Z,64.70
2019-01-24T20:22:47.399Z,64.70
2019-01-24T20:25:26.401Z,64.90
2019-01-24T20:27:58.888Z,65.30
2019-01-24T20:30:32.794Z,62.70
2019-01-24T20:33:05.739Z,63.80
2019-01-24T20:35:40.655Z,65.70
2019-01-24T20:38:14.546Z,65.70
2019-01-24T20:40:47.467Z,65.00
2019-01-24T20:43:20.264Z,64.40
2019-01-24T20:45:55.295Z,61.40
2019-01-24T20:48:30.823Z,64.40
2019-01-24T20:51:03.441Z,65.40
2019-01-24T20:53:37.631Z,64.10
2019-01-24T20:56:10.625Z,63.70
2019-01-24T20:58:42.908Z,63.90
2019-01-24T21:01:16.351Z,64.00
2019-01-24T21:04:04.267Z,65.20
2019-01-24T21:06:40.674Z,65.70
2019-01-24T21:09:14.932Z,66.40
2019-01-24T21:11:55.001Z,67.30
2019-01-24T21:14:41.041Z,68.00
2019-01-24T21:17:19.618Z,69.00
2019-01-24T21:19:52.712Z,69.20
2019-01-24T21:22:24.890Z,68.70
2019-01-24T21:24:57.916Z,67.90
2019-01-24T21:27:32.819Z,68.20
2019-01-24T21:30:08.684Z,67.50
2019-01-24T21:32:40.716Z,67.10
2019-01-24T21:35:13.835Z,65.50
2019-01-24T21:37:46.877Z,64.50
2019-01-24T21:40:22.272Z,64.60
2019-01-24T21:42:55.139Z,63.60
2019-01-24T21:45:35.866Z,64.30
2019-01-24T21:48:11.631Z,64.10
2019-01-24T21:50:45.662Z,65.60
2019-01-24T21:53:19.267Z,66.90
2019-01-24T21:55:53.284Z,66.30
2019-01-24T21:58:27.106Z,68.20
2019-01-24T22:01:00.363Z,69.30
2019-01-24T22:03:32.635Z,69.00
2019-01-24T22:06:05.119Z,68.90
2019-01-24T22:08:37.184Z,68.10
2019-01-24T22:11:09.385Z,68.10
2019-01-24T22:13:42.778Z,67.00
2019-01-24T22:16:14.942Z,67.10
2019-01-24T22:18:46.947Z,66.70
2019-01-24T22:21:18.925Z,66.40
2019-01-24T22:23:51.513Z,66.70
2019-01-24T22:26:23.619Z,68.60
2019-01-24T22:28:55.592Z,69.00
2019-01-24T22:31:28.394Z,69.60
2019-01-24T22:34:01.153Z,71.20
2019-01-24T22:36:33.303Z,72.00
2019-01-24T22:39:06.849Z,73.00
2019-01-24T22:41:39.106Z,74.00
2019-01-24T22:44:11.774Z,74.30
2019-01-24T22:46:44.077Z,75.00
2019-01-24T22:49:16.485Z,75.50
2019-01-24T22:51:48.512Z,75.10
2019-01-24T22:54:22.308Z,76.20
2019-01-24T22:56:56.916Z,76.70
2019-01-24T22:59:29.099Z,78.00
2019-01-24T23:02:01.509Z,77.90
2019-01-24T23:04:33.968Z,77.80
2019-01-24T23:07:06.359Z,78.30
2019-01-24T23:09:44.066Z,78.50
2019-01-24T23:12:12.527Z,79.40
2019-01-24T23:14:45.175Z,80.60
2019-01-24T23:17:17.378Z,81.90
2019-01-24T23:19:49.377Z,83.40
2019-01-24T23:22:21.620Z,84.60
2019-01-24T23:24:56.325Z,85.30
2019-01-24T23:27:29.199Z,86.70
2019-01-24T23:30:01.502Z,87.30
2019-01-24T23:32:34.982Z,88.00
2019-01-24T23:35:10.471Z,89.70
2019-01-24T23:37:52.223Z,90.40
2019-01-24T23:40:19.450Z,91.10
2019-01-24T23:42:51.519Z,91.60
2019-01-24T23:45:23.774Z,92.30
2019-01-24T23:47:56.877Z,93.00
2019-01-24T23:50:30.124Z,93.30
2019-01-24T23:53:03.089Z,93.90
2019-01-24T23:55:35.521Z,95.00
2019-01-24T23:58:10.508Z,96.40
